Time,TemperatureF,DewpointF,PressureIn,WindDirection,WindDirectionDegrees,WindSpeedMPH,WindSpeedGustMPH,Humidity,HourlyPrecipIn,Conditions,Clouds,dailyrainin,SoftwareType,DateUTC
2013-04-30 00:01:00,55.3,52.7,30.15,ESE,108,3.4,4.9,92,0.00,,,0.00,WX3IN1Plus v1.30,2013-04-30 04:01:00,
2013-04-30 00:06:00,55.3,52.7,30.15,SSE,161,0.0,4.9,92,0.00,,,0.00,WX3IN1Plus v1.30,2013-04-30 04:06:00,
2013-04-30 00:11:00,55.2,52.7,30.15,SSE,167,0.0,1.3,92,0.00,,,0.00,WX3IN1Plus v1.30,2013-04-30 04:11:00,
2013-04-30 00:16:00,55.3,52.7,30.15,NNE,28,0.6,3.1,92,0.00,,,0.00,WX3IN1Plus v1.30,2013-04-30 04:16:00,
2013-04-30 00:21:00,55.4,52.8,30.15,SSE,156,0.0,1.7,92,0.00,,,0.00,WX3IN1Plus v1.30,2013-04-30 04:21:00,
2013-04-30 00:26:00,55.3,52.7,30.15,ESE,123,1.5,5.4,92,0.00,,,0.00,WX3IN1Plus v1.30,2013-04-30 04:26:00,
2013-04-30 00:31:00,55.1,52.7,30.15,ESE,112,0.0,3.5,92,0.00,,,0.00,WX3IN1Plus v1.30,2013-04-30 04:31:00,
2013-04-30 00:36:00,55.2,52.7,30.15,NNE,14,3.1,3.7,92,0.00,,,0.00,WX3IN1Plus v1.30,2013-04-30 04:36:00,
2013-04-30 00:41:00,55.3,52.7,30.15,ESE,122,2.1,7.1,92,0.00,,,0.00,WX3IN1Plus v1.30,2013-04-30 04:41:00,
2013-04-30 00:46:00,55.1,52.7,30.15,ENE,59,0.3,4.7,92,0.00,,,0.00,WX3IN1Plus v1.30,2013-04-30 04:46:00,
2013-04-30 00:51:00,55.2,52.7,30.15,ENE,77,0.0,4.2,92,0.00,,,0.00,WX3IN1Plus v1.30,2013-04-30 04:51:00,
2013-04-30 00:56:00,55.2,52.7,30.15,East,90,3.1,4.9,92,0.00,,,0.00,WX3IN1Plus v1.30,2013-04-30 04:56:00,
2013-04-30 01:01:00,54.9,52.3,30.15,East,91,0.0,3.6,92,0.00,,,0.00,WX3IN1Plus v1.30,2013-04-30 05:01:00,
2013-04-30 01:06:00,54.8,52.1,30.15,East,91,0.0,4.9,92,0.00,,,0.00,WX3IN1Plus v1.30,2013-04-30 05:06:00,
2013-04-30 01:11:00,54.9,52.3,30.15,NE,52,0.6,1.6,92,0.00,,,0.00,WX3IN1Plus v1.30,2013-04-30 05:11:00,
2013-04-30 01:16:00,54.8,52.3,30.15,SE,140,0.0,7.8,93,0.00,,,0.00,WX3IN1Plus v1.30,2013-04-30 05:16:00,
2013-04-30 01:21:00,54.7,52.3,30.15,East,97,0.0,1.7,93,0.00,,,0.00,WX3IN1Plus v1.30,2013-04-30 05:21:00,
2013-04-30 01:26:00,54.9,52.7,30.15,NE,52,0.0,5.2,93,0.00,,,0.00,WX3IN1Plus v1.30,2013-04-30 05:26:00,
2013-04-30 01:31:00,54.7,52.3,30.15,NE,56,0.0,2.9,93,0.00,,,0.00,WX3IN1Plus v1.30,2013-04-30 05:31:00,
2013-04-30 01:36:00,54.6,52.3,30.15,SSE,150,0.8,4.9,93,0.00,,,0.00,WX3IN1Plus v1.30,2013-04-30 05:36:00,
2013-04-30 01:41:00,54.5,52.3,30.15,NE,42,0.0,3.6,93,0.00,,,0.00,WX3IN1Plus v1.30,2013-04-30 05:41:00,
2013-04-30 01:46:00,54.7,52.3,30.14,NE,36,0.0,4.2,93,0.00,,,0.00,WX3IN1Plus v1.30,2013-04-30 05:46:00,
2013-04-30 01:51:00,54.8,52.3,30.15,East,88,0.4,3.1,93,0.00,,,0.00,WX3IN1Plus v1.30,2013-04-30 05:51:00,
2013-04-30 01:56:00,54.8,52.3,30.15,NE,56,0.0,1.8,93,0.00,,,0.00,WX3IN1Plus v1.30,2013-04-30 05:56:00,
2013-04-30 02:01:00,54.5,52.3,30.15,ENE,74,2.1,2.9,93,0.00,,,0.00,WX3IN1Plus v1.30,2013-04-30 06:01:00,
2013-04-30 02:06:00,54.6,52.3,30.15,NE,56,0.0,5.3,93,0.00,,,0.00,WX3IN1Plus v1.30,2013-04-30 06:06:00,
2013-04-30 02:11:00,54.6,52.3,30.14,ENE,63,2.6,4.0,93,0.00,,,0.00,WX3IN1Plus v1.30,2013-04-30 06:11:00,
2013-04-30 02:16:00,54.5,52.3,30.14,ENE,68,0.0,5.4,93,0.00,,,0.00,WX3IN1Plus v1.30,2013-04-30 06:16:00,
2013-04-30 02:21:00,54.5,52.3,30.15,East,90,0.0,4.0,93,0.00,,,0.00,WX3IN1Plus v1.30,2013-04-30 06:21:00,
2013-04-30 02:26:00,54.7,52.3,30.14,ENE,64,2.2,4.1,93,0.00,,,0.00,WX3IN1Plus v1.30,2013-04-30 06:26:00,
2013-04-30 02:31:00,54.8,52.3,30.14,East,90,0.0,7.9,93,0.00,,,0.00,WX3IN1Plus v1.30,2013-04-30 06:31:00,
2013-04-30 02:36:00,54.7,52.3,30.14,ESE,106,0.0,2.2,93,0.00,,,0.00,WX3IN1Plus v1.30,2013-04-30 06:36:00,
2013-04-30 02:42:00,54.6,52.3,30.15,ENE,64,0.0,2.0,93,0.00,,,0.00,WX3IN1Plus v1.30,2013-04-30 06:42:00,
2013-04-30 02:47:00,54.7,52.3,30.14,NE,53,0.0,4.0,93,0.00,,,0.00,WX3IN1Plus v1.30,2013-04-30 06:47:00,
2013-04-30 02:52:00,54.9,52.7,30.14,ENE,70,0.0,2.6,93,0.00,,,0.00,WX3IN1Plus v1.30,2013-04-30 06:52:00,
2013-04-30 02:57:00,54.7,52.3,30.14,ENE,70,0.0,0.0,93,0.00,,,0.00,WX3IN1Plus v1.30,2013-04-30 06:57:00,
2013-04-30 03:02:00,54.7,52.3,30.14,NNE,33,0.0,2.9,93,0.00,,,0.00,WX3IN1Plus v1.30,2013-04-30 07:02:00,
2013-04-30 03:07:00,54.7,52.3,30.14,East,92,0.0,2.7,93,0.00,,,0.00,WX3IN1Plus v1.30,2013-04-30 07:07:00,
2013-04-30 03:12:00,54.9,52.7,30.14,ENE,71,0.0,2.5,93,0.00,,,0.00,WX3IN1Plus v1.30,2013-04-30 07:12:00,
2013-04-30 03:17:00,54.8,52.3,30.14,East,88,0.0,6.5,93,0.00,,,0.00,WX3IN1Plus v1.30,2013-04-30 07:17:00,
2013-04-30 03:22:00,55.0,52.7,30.14,SSE,157,0.0,1.6,93,0.00,,,0.00,WX3IN1Plus v1.30,2013-04-30 07:22:00,
2013-04-30 03:27:00,54.5,52.3,30.14,ENE,60,0.0,0.9,93,0.00,,,0.00,WX3IN1Plus v1.30,2013-04-30 07:27:00,
2013-04-30 03:32:00,54.8,52.3,30.14,NE,43,0.0,3.2,93,0.00,,,0.00,WX3IN1Plus v1.30,2013-04-30 07:32:00,
2013-04-30 03:37:00,54.8,52.3,30.14,ENE,78,0.6,5.2,93,0.00,,,0.00,WX3IN1Plus v1.30,2013-04-30 07:37:00,
2013-04-30 03:42:00,54.8,52.3,30.15,SSE,161,1.2,6.0,93,0.00,,,0.00,WX3IN1Plus v1.30,2013-04-30 07:42:00,
2013-04-30 03:47:00,54.8,52.3,30.15,ESE,113,0.0,7.3,93,0.00,,,0.00,WX3IN1Plus v1.30,2013-04-30 07:47:00,
2013-04-30 03:52:00,54.5,52.3,30.15,East,92,0.0,4.2,93,0.00,,,0.00,WX3IN1Plus v1.30,2013-04-30 07:52:00,
2013-04-30 03:57:00,54.7,52.3,30.15,ENE,66,0.0,2.8,93,0.00,,,0.00,WX3IN1Plus v1.30,2013-04-30 07:57:00,
2013-04-30 04:02:00,54.8,52.3,30.15,SSE,149,0.0,3.6,93,0.00,,,0.00,WX3IN1Plus v1.30,2013-04-30 08:02:00,
2013-04-30 04:07:00,54.8,52.3,30.15,SSE,154,0.0,3.3,93,0.00,,,0.00,WX3IN1Plus v1.30,2013-04-30 08:07:00,
2013-04-30 04:12:00,54.9,52.7,30.15,WSW,244,0.0,5.4,93,0.00,,,0.00,WX3IN1Plus v1.30,2013-04-30 08:12:00,
2013-04-30 04:17:00,54.8,52.3,30.15,ENE,68,0.0,4.2,93,0.00,,,0.00,WX3IN1Plus v1.30,2013-04-30 08:17:00,
2013-04-30 04:22:00,54.9,52.7,30.15,NE,54,0.0,2.1,93,0.00,,,0.00,WX3IN1Plus v1.30,2013-04-30 08:22:00,
2013-04-30 04:27:00,54.9,52.7,30.15,East,81,1.3,3.2,93,0.00,,,0.00,WX3IN1Plus v1.30,2013-04-30 08:27:00,
2013-04-30 04:32:00,54.6,52.3,30.15,ENE,60,0.0,5.2,93,0.00,,,0.00,WX3IN1Plus v1.30,2013-04-30 08:32:00,
2013-04-30 04:37:00,54.7,52.3,30.15,ENE,74,1.1,3.0,93,0.00,,,0.00,WX3IN1Plus v1.30,2013-04-30 08:37:00,
2013-04-30 04:42:00,55.0,52.7,30.15,NE,45,0.0,3.2,93,0.00,,,0.00,WX3IN1Plus v1.30,2013-04-30 08:42:00,
2013-04-30 04:47:00,54.9,52.7,30.15,East,88,0.0,2.6,93,0.00,,,0.00,WX3IN1Plus v1.30,2013-04-30 08:47:00,
2013-04-30 04:52:00,55.0,52.7,30.16,East,84,0.0,4.4,93,0.00,,,0.00,WX3IN1Plus v1.30,2013-04-30 08:52:00,
2013-04-30 04:57:00,55.0,52.7,30.16,NE,42,1.1,4.5,93,0.00,,,0.00,WX3IN1Plus v1.30,2013-04-30 08:57:00,
2013-04-30 05:02:00,54.9,52.7,30.16,ESE,120,0.0,1.8,93,0.00,,,0.00,WX3IN1Plus v1.30,2013-04-30 09:02:00,
2013-04-30 05:07:00,55.0,52.7,30.16,East,92,0.0,4.9,93,0.00,,,0.00,WX3IN1Plus v1.30,2013-04-30 09:07:00,
2013-04-30 05:12:00,54.8,52.3,30.16,ENE,70,0.7,4.4,93,0.00,,,0.00,WX3IN1Plus v1.30,2013-04-30 09:12:00,
2013-04-30 05:17:00,54.8,52.3,30.16,ESE,123,0.0,3.8,93,0.00,,,0.00,WX3IN1Plus v1.30,2013-04-30 09:17:00,
2013-04-30 05:22:00,54.9,52.7,30.16,East,98,0.0,4.7,93,0.00,,,0.00,WX3IN1Plus v1.30,2013-04-30 09:22:00,
2013-04-30 05:27:00,54.8,52.3,30.16,NNE,22,0.9,4.6,93,0.00,,,0.00,WX3IN1Plus v1.30,2013-04-30 09:27:00,
2013-04-30 05:32:00,54.9,52.7,30.16,ENE,75,0.6,7.9,93,0.00,,,0.00,WX3IN1Plus v1.30,2013-04-30 09:32:00,
2013-04-30 05:37:00,54.8,52.3,30.17,ESE,106,0.0,2.7,93,0.00,,,0.00,WX3IN1Plus v1.30,2013-04-30 09:37:00,
2013-04-30 05:42:00,54.7,52.3,30.17,East,94,0.0,5.5,93,0.00,,,0.00,WX3IN1Plus v1.30,2013-04-30 09:42:00,
2013-04-30 05:47:00,54.7,52.3,30.17,ENE,60,0.5,5.9,93,0.00,,,0.00,WX3IN1Plus v1.30,2013-04-30 09:47:00,
2013-04-30 05:52:00,54.6,52.3,30.17,NNE,33,0.0,6.2,93,0.00,,,0.00,WX3IN1Plus v1.30,2013-04-30 09:52:00,
2013-04-30 05:57:00,54.7,52.3,30.17,ENE,67,1.3,3.9,93,0.00,,,0.00,WX3IN1Plus v1.30,2013-04-30 09:57:00,
2013-04-30 06:02:00,54.7,52.3,30.18,NNE,15,0.0,2.2,93,0.00,,,0.00,WX3IN1Plus v1.30,2013-04-30 10:02:00,
2013-04-30 06:07:00,54.7,52.3,30.18,SSE,151,0.0,5.6,93,0.00,,,0.00,WX3IN1Plus v1.30,2013-04-30 10:07:00,
2013-04-30 06:12:00,54.7,52.3,30.18,SE,139,1.8,3.4,93,0.00,,,0.00,WX3IN1Plus v1.30,2013-04-30 10:12:00,
2013-04-30 06:17:00,54.8,52.3,30.18,NE,54,0.9,2.7,93,0.00,,,0.00,WX3IN1Plus v1.30,2013-04-30 10:17:00,
2013-04-30 06:22:00,54.6,52.3,30.18,SSE,147,0.6,7.4,93,0.00,,,0.00,WX3IN1Plus v1.30,2013-04-30 10:22:00,
2013-04-30 06:27:00,54.7,52.3,30.19,ENE,61,0.0,3.2,93,0.00,,,0.00,WX3IN1Plus v1.30,2013-04-30 10:27:00,
2013-04-30 06:32:00,54.8,52.3,30.19,SE,127,0.0,5.0,93,0.00,,,0.00,WX3IN1Plus v1.30,2013-04-30 10:32:00,
2013-04-30 06:37:00,54.7,52.3,30.19,NE,35,0.0,3.7,93,0.00,,,0.00,WX3IN1Plus v1.30,2013-04-30 10:37:00,
2013-04-30 06:42:00,54.6,52.3,30.20,East,85,0.0,6.3,93,0.00,,,0.00,WX3IN1Plus v1.30,2013-04-30 10:42:00,
2013-04-30 06:47:00,55.0,52.7,30.20,East,85,0.0,0.0,93,0.00,,,0.00,WX3IN1Plus v1.30,2013-04-30 10:47:00,
2013-04-30 06:52:00,55.0,52.7,30.20,East,85,0.0,0.0,93,0.00,,,0.00,WX3IN1Plus v1.30,2013-04-30 10:52:00,
2013-04-30 06:57:00,55.1,52.8,30.20,East,85,0.0,3.2,93,0.00,,,0.00,WX3IN1Plus v1.30,2013-04-30 10:57:00,
2013-04-30 07:02:00,54.9,52.7,30.20,NNE,28,0.6,1.6,93,0.00,,,0.00,WX3IN1Plus v1.30,2013-04-30 11:02:00,
2013-04-30 07:07:00,55.1,52.8,30.20,ENE,63,0.0,3.6,93,0.00,,,0.00,WX3IN1Plus v1.30,2013-04-30 11:07:00,
2013-04-30 07:12:00,55.2,52.8,30.21,NNE,14,0.0,2.7,93,0.00,,,0.00,WX3IN1Plus v1.30,2013-04-30 11:12:00,
2013-04-30 07:17:00,55.0,52.7,30.21,ENE,74,0.0,0.9,93,0.00,,,0.00,WX3IN1Plus v1.30,2013-04-30 11:17:00,
2013-04-30 07:22:00,55.1,52.8,30.22,NNE,12,0.0,4.1,93,0.00,,,0.00,WX3IN1Plus v1.30,2013-04-30 11:22:00,
2013-04-30 07:27:00,55.1,52.8,30.22,East,88,3.4,4.7,93,0.00,,,0.00,WX3IN1Plus v1.30,2013-04-30 11:27:00,
2013-04-30 07:32:00,54.8,52.3,30.22,ENE,67,2.2,9.5,93,0.00,,,0.00,WX3IN1Plus v1.30,2013-04-30 11:32:00,
2013-04-30 07:37:00,54.9,52.7,30.22,NE,43,0.6,3.6,93,0.00,,,0.00,WX3IN1Plus v1.30,2013-04-30 11:37:00,
2013-04-30 07:42:00,55.1,52.8,30.22,ENE,57,0.1,4.3,93,0.00,,,0.00,WX3IN1Plus v1.30,2013-04-30 11:42:00,
2013-04-30 07:49:00,55.1,52.8,30.22,ENE,71,0.3,4.1,93,0.00,,,0.00,WX3IN1Plus v1.30,2013-04-30 11:49:00,
2013-04-30 07:54:00,55.0,52.7,30.22,NE,42,0.0,3.4,93,0.00,,,0.00,WX3IN1Plus v1.30,2013-04-30 11:54:00,
2013-04-30 07:59:00,54.7,52.3,30.22,SSE,149,0.0,4.4,93,0.00,,,0.00,WX3IN1Plus v1.30,2013-04-30 11:59:00,
2013-04-30 08:04:00,55.0,52.7,30.22,East,94,0.7,5.5,93,0.00,,,0.00,WX3IN1Plus v1.30,2013-04-30 12:04:00,
2013-04-30 08:09:00,55.0,52.7,30.22,SE,146,0.0,6.2,93,0.00,,,0.00,WX3IN1Plus v1.30,2013-04-30 12:09:00,
2013-04-30 08:14:00,54.6,52.3,30.22,SSE,160,3.8,6.8,93,0.00,,,0.00,WX3IN1Plus v1.30,2013-04-30 12:14:00,
2013-04-30 08:19:00,54.8,52.3,30.22,East,85,4.3,8.8,93,0.00,,,0.00,WX3IN1Plus v1.30,2013-04-30 12:19:00,
2013-04-30 08:24:00,54.8,52.3,30.23,NE,54,2.3,7.4,93,0.00,,,0.00,WX3IN1Plus v1.30,2013-04-30 12:24:00,
2013-04-30 08:29:00,54.6,52.3,30.23,East,90,0.6,5.5,93,0.00,,,0.00,WX3IN1Plus v1.30,2013-04-30 12:29:00,
2013-04-30 08:34:00,54.5,52.3,30.23,South,187,2.1,5.0,93,0.00,,,0.00,WX3IN1Plus v1.30,2013-04-30 12:34:00,
2013-04-30 08:39:00,54.8,52.3,30.23,ENE,77,1.8,4.6,93,0.00,,,0.00,WX3IN1Plus v1.30,2013-04-30 12:39:00,
2013-04-30 08:44:00,54.7,52.3,30.23,SE,144,0.0,6.2,93,0.00,,,0.00,WX3IN1Plus v1.30,2013-04-30 12:44:00,
2013-04-30 08:49:00,54.8,52.3,30.23,ENE,60,0.0,11.3,93,0.00,,,0.00,WX3IN1Plus v1.30,2013-04-30 12:49:00,
2013-04-30 08:54:00,54.7,52.3,30.23,NE,45,0.0,6.0,93,0.00,,,0.00,WX3IN1Plus v1.30,2013-04-30 12:54:00,
2013-04-30 08:59:00,54.8,52.3,30.24,ESE,118,0.2,6.2,93,0.00,,,0.00,WX3IN1Plus v1.30,2013-04-30 12:59:00,
2013-04-30 09:04:00,54.7,52.3,30.24,SE,135,0.8,8.0,93,0.00,,,0.00,WX3IN1Plus v1.30,2013-04-30 13:04:00,
2013-04-30 09:09:00,54.6,52.3,30.24,East,94,1.0,6.9,93,0.00,,,0.00,WX3IN1Plus v1.30,2013-04-30 13:09:00,
2013-04-30 09:14:00,54.7,52.3,30.24,North,0,4.2,5.0,93,0.00,,,0.00,WX3IN1Plus v1.30,2013-04-30 13:14:00,
2013-04-30 09:19:00,54.7,52.3,30.24,ENE,73,0.0,8.6,93,0.00,,,0.00,WX3IN1Plus v1.30,2013-04-30 13:19:00,
2013-04-30 09:24:00,54.6,52.3,30.24,SE,136,1.9,5.2,93,0.00,,,0.00,WX3IN1Plus v1.30,2013-04-30 13:24:00,
2013-04-30 09:29:00,54.6,52.3,30.24,ENE,64,5.2,7.2,93,0.00,,,0.00,WX3IN1Plus v1.30,2013-04-30 13:29:00,
2013-04-30 09:34:00,54.7,52.3,30.24,ENE,71,4.1,5.2,93,0.00,,,0.00,WX3IN1Plus v1.30,2013-04-30 13:34:00,
2013-04-30 09:39:00,54.7,52.3,30.24,East,95,0.0,6.7,93,0.00,,,0.00,WX3IN1Plus v1.30,2013-04-30 13:39:00,
2013-04-30 09:44:00,54.7,52.3,30.25,East,81,0.0,5.7,93,0.00,,,0.00,WX3IN1Plus v1.30,2013-04-30 13:44:00,
2013-04-30 09:49:00,55.0,52.7,30.25,ENE,67,0.6,5.7,93,0.00,,,0.00,WX3IN1Plus v1.30,2013-04-30 13:49:00,
2013-04-30 09:54:00,55.2,52.8,30.25,East,90,1.4,5.5,93,0.00,,,0.00,WX3IN1Plus v1.30,2013-04-30 13:54:00,
2013-04-30 09:59:00,55.0,52.7,30.25,NNE,12,0.0,5.3,93,0.00,,,0.00,WX3IN1Plus v1.30,2013-04-30 13:59:00,
2013-04-30 10:04:00,55.1,52.8,30.25,ENE,66,0.0,3.8,93,0.00,,,0.00,WX3IN1Plus v1.30,2013-04-30 14:04:00,
2013-04-30 10:09:00,55.1,52.8,30.25,ESE,111,1.4,1.6,93,0.00,,,0.00,WX3IN1Plus v1.30,2013-04-30 14:09:00,
2013-04-30 10:14:00,55.4,53.2,30.25,SSW,194,0.0,5.8,93,0.00,,,0.00,WX3IN1Plus v1.30,2013-04-30 14:14:00,
2013-04-30 10:19:00,55.3,52.8,30.25,East,88,0.0,6.7,93,0.00,,,0.00,WX3IN1Plus v1.30,2013-04-30 14:19:00,
2013-04-30 10:24:00,55.3,52.8,30.25,South,170,0.0,5.4,93,0.00,,,0.00,WX3IN1Plus v1.30,2013-04-30 14:24:00,
2013-04-30 10:29:00,55.2,52.8,30.25,South,171,1.6,5.7,93,0.00,,,0.00,WX3IN1Plus v1.30,2013-04-30 14:29:00,
2013-04-30 10:34:00,55.7,53.6,30.25,NE,56,0.0,2.9,93,0.00,,,0.00,WX3IN1Plus v1.30,2013-04-30 14:34:00,
2013-04-30 10:39:00,55.5,53.2,30.25,NNW,337,4.0,9.4,93,0.00,,,0.00,WX3IN1Plus v1.30,2013-04-30 14:39:00,
2013-04-30 10:44:00,55.7,53.6,30.25,SSE,163,0.0,4.7,93,0.00,,,0.00,WX3IN1Plus v1.30,2013-04-30 14:44:00,
2013-04-30 10:49:00,55.9,53.6,30.25,SE,126,0.0,3.9,93,0.00,,,0.00,WX3IN1Plus v1.30,2013-04-30 14:49:00,
2013-04-30 10:54:00,56.0,53.7,30.25,ENE,64,0.0,3.6,93,0.00,,,0.00,WX3IN1Plus v1.30,2013-04-30 14:54:00,
2013-04-30 10:59:00,56.1,53.7,30.25,ENE,70,3.1,7.0,93,0.00,,,0.00,WX3IN1Plus v1.30,2013-04-30 14:59:00,
2013-04-30 11:04:00,56.1,53.6,30.25,ENE,75,0.0,3.1,92,0.00,,,0.00,WX3IN1Plus v1.30,2013-04-30 15:04:00,
2013-04-30 11:09:00,56.2,53.7,30.26,NE,54,0.0,5.3,92,0.00,,,0.00,WX3IN1Plus v1.30,2013-04-30 15:09:00,
2013-04-30 11:14:00,56.1,53.6,30.26,SE,146,0.0,6.1,92,0.00,,,0.00,WX3IN1Plus v1.30,2013-04-30 15:14:00,
2013-04-30 11:19:00,56.2,54.1,30.26,East,80,3.2,5.9,93,0.00,,,0.00,WX3IN1Plus v1.30,2013-04-30 15:19:00,
2013-04-30 11:24:00,56.3,54.1,30.26,NNW,333,4.1,9.4,93,0.00,,,0.00,WX3IN1Plus v1.30,2013-04-30 15:24:00,
2013-04-30 11:29:00,56.5,54.3,30.26,SSE,160,0.0,5.6,93,0.00,,,0.00,WX3IN1Plus v1.30,2013-04-30 15:29:00,
2013-04-30 11:34:00,56.9,54.6,30.26,NE,40,4.9,7.3,93,0.00,,,0.00,WX3IN1Plus v1.30,2013-04-30 15:34:00,
2013-04-30 11:39:00,56.9,54.3,30.26,ENE,73,5.7,7.5,92,0.00,,,0.00,WX3IN1Plus v1.30,2013-04-30 15:39:00,
2013-04-30 11:44:00,57.1,54.6,30.25,SSE,163,2.1,5.9,92,0.00,,,0.00,WX3IN1Plus v1.30,2013-04-30 15:44:00,
2013-04-30 11:49:00,57.3,54.8,30.26,South,185,1.3,8.1,92,0.00,,,0.00,WX3IN1Plus v1.30,2013-04-30 15:49:00,
2013-04-30 11:54:00,57.2,54.8,30.26,South,191,2.9,8.5,92,0.00,,,0.00,WX3IN1Plus v1.30,2013-04-30 15:54:00,
2013-04-30 12:00:00,57.7,55.2,30.25,South,175,3.8,4.8,92,0.00,,,0.00,WX3IN1Plus v1.30,2013-04-30 16:00:00,
2013-04-30 12:05:00,57.7,55.2,30.26,North,355,1.1,5.2,92,0.00,,,0.00,WX3IN1Plus v1.30,2013-04-30 16:05:00,
2013-04-30 12:10:00,58.0,55.2,30.26,SSE,161,1.1,5.7,91,0.00,,,0.00,WX3IN1Plus v1.30,2013-04-30 16:10:00,
2013-04-30 12:15:00,58.1,55.4,30.26,South,178,0.0,3.4,91,0.00,,,0.00,WX3IN1Plus v1.30,2013-04-30 16:15:00,
2013-04-30 12:20:00,58.2,54.8,30.26,South,171,2.4,6.6,90,0.00,,,0.00,WX3IN1Plus v1.30,2013-04-30 16:20:00,
2013-04-30 12:25:00,58.1,54.8,30.26,SSE,168,6.0,6.0,90,0.00,,,0.00,WX3IN1Plus v1.30,2013-04-30 16:25:00,
2013-04-30 12:30:00,58.3,54.8,30.26,SE,144,3.1,6.3,90,0.00,,,0.00,WX3IN1Plus v1.30,2013-04-30 16:30:00,
2013-04-30 12:35:00,58.4,54.6,30.25,ESE,109,0.7,7.7,89,0.00,,,0.00,WX3IN1Plus v1.30,2013-04-30 16:35:00,
2013-04-30 12:40:00,58.8,55.2,30.25,South,180,2.4,7.1,89,0.00,,,0.00,WX3IN1Plus v1.30,2013-04-30 16:40:00,
2013-04-30 12:45:00,58.9,54.8,30.25,SE,139,1.3,6.0,88,0.00,,,0.00,WX3IN1Plus v1.30,2013-04-30 16:45:00,
2013-04-30 12:50:00,59.2,55.4,30.25,South,178,2.3,6.7,88,0.00,,,0.00,WX3IN1Plus v1.30,2013-04-30 16:50:00,
2013-04-30 12:55:00,59.4,55.2,30.26,NNE,29,1.6,5.9,87,0.00,,,0.00,WX3IN1Plus v1.30,2013-04-30 16:55:00,
2013-04-30 13:00:00,59.5,55.2,30.25,ESE,116,0.7,7.8,87,0.00,,,0.00,WX3IN1Plus v1.30,2013-04-30 17:00:00,
2013-04-30 13:05:00,59.9,55.4,30.25,ENE,71,3.5,7.5,86,0.00,,,0.00,WX3IN1Plus v1.30,2013-04-30 17:05:00,
2013-04-30 13:10:00,60.1,55.4,30.25,South,185,2.0,6.5,85,0.00,,,0.00,WX3IN1Plus v1.30,2013-04-30 17:10:00,
2013-04-30 13:15:00,60.4,55.7,30.25,SSW,192,4.0,4.6,85,0.00,,,0.00,WX3IN1Plus v1.30,2013-04-30 17:15:00,
2013-04-30 13:20:00,60.7,55.7,30.25,SSW,208,2.4,6.3,84,0.00,,,0.00,WX3IN1Plus v1.30,2013-04-30 17:20:00,
2013-04-30 13:25:00,60.6,55.4,30.25,NNW,340,2.3,6.1,84,0.00,,,0.00,WX3IN1Plus v1.30,2013-04-30 17:25:00,
2013-04-30 13:30:00,60.4,55.4,30.25,ESE,115,4.0,7.9,84,0.00,,,0.00,WX3IN1Plus v1.30,2013-04-30 17:30:00,
2013-04-30 13:35:00,60.4,55.4,30.25,SW,220,2.1,8.3,84,0.00,,,0.00,WX3IN1Plus v1.30,2013-04-30 17:35:00,
2013-04-30 13:40:00,60.2,55.2,30.26,SSE,150,3.5,5.7,84,0.00,,,0.00,WX3IN1Plus v1.30,2013-04-30 17:40:00,
2013-04-30 13:45:00,60.1,55.4,30.26,South,189,0.8,4.5,85,0.00,,,0.00,WX3IN1Plus v1.30,2013-04-30 17:45:00,
2013-04-30 13:50:00,60.1,55.4,30.26,SSW,208,2.4,6.9,85,0.00,,,0.00,WX3IN1Plus v1.30,2013-04-30 17:50:00,
2013-04-30 13:55:00,59.8,55.4,30.26,NE,43,1.0,4.9,86,0.00,,,0.00,WX3IN1Plus v1.30,2013-04-30 17:55:00,
2013-04-30 14:00:00,59.6,55.4,30.26,ESE,120,0.4,3.1,87,0.00,,,0.00,WX3IN1Plus v1.30,2013-04-30 18:00:00,
2013-04-30 14:05:00,59.7,55.2,30.26,South,184,2.1,7.2,86,0.00,,,0.00,WX3IN1Plus v1.30,2013-04-30 18:05:00,
2013-04-30 14:10:00,59.5,54.8,30.26,SW,219,1.1,3.7,86,0.00,,,0.00,WX3IN1Plus v1.30,2013-04-30 18:10:00,
2013-04-30 14:15:00,59.5,54.8,30.27,SE,142,2.3,6.5,86,0.00,,,0.00,WX3IN1Plus v1.30,2013-04-30 18:15:00,
2013-04-30 14:20:00,59.3,54.8,30.27,ESE,102,0.0,4.5,86,0.00,,,0.00,WX3IN1Plus v1.30,2013-04-30 18:20:00,
2013-04-30 14:25:00,59.5,55.2,30.27,SE,146,3.3,7.8,87,0.00,,,0.00,WX3IN1Plus v1.30,2013-04-30 18:25:00,
2013-04-30 14:30:00,59.5,55.2,30.27,SE,125,1.4,11.8,87,0.00,,,0.00,WX3IN1Plus v1.30,2013-04-30 18:30:00,
2013-04-30 14:35:00,59.4,55.2,30.27,North,5,3.8,5.7,87,0.00,,,0.00,WX3IN1Plus v1.30,2013-04-30 18:35:00,
2013-04-30 14:40:00,59.4,55.2,30.27,ESE,105,2.6,7.9,87,0.00,,,0.00,WX3IN1Plus v1.30,2013-04-30 18:40:00,
2013-04-30 14:45:00,59.3,55.4,30.27,SE,129,3.2,6.4,88,0.00,,,0.00,WX3IN1Plus v1.30,2013-04-30 18:45:00,
2013-04-30 14:50:00,59.2,55.2,30.27,ENE,64,0.4,7.8,87,0.00,,,0.00,WX3IN1Plus v1.30,2013-04-30 18:50:00,
2013-04-30 14:55:00,59.2,55.4,30.26,ESE,116,0.8,3.9,88,0.00,,,0.00,WX3IN1Plus v1.30,2013-04-30 18:55:00,
2013-04-30 15:00:00,59.2,55.4,30.27,SSE,153,0.0,5.6,88,0.00,,,0.00,WX3IN1Plus v1.30,2013-04-30 19:00:00,
2013-04-30 15:05:00,59.2,55.4,30.27,ENE,57,4.4,5.0,88,0.00,,,0.00,WX3IN1Plus v1.30,2013-04-30 19:05:00,
2013-04-30 15:10:00,59.3,55.4,30.27,NE,43,0.0,4.5,88,0.00,,,0.00,WX3IN1Plus v1.30,2013-04-30 19:10:00,
2013-04-30 15:15:00,59.2,55.4,30.27,NNE,23,2.9,4.9,88,0.00,,,0.00,WX3IN1Plus v1.30,2013-04-30 19:15:00,
2013-04-30 15:20:00,59.4,55.4,30.27,SE,144,1.8,4.1,88,0.00,,,0.00,WX3IN1Plus v1.30,2013-04-30 19:20:00,
2013-04-30 15:25:00,59.3,55.4,30.26,SSE,150,0.0,4.7,88,0.00,,,0.00,WX3IN1Plus v1.30,2013-04-30 19:25:00,
2013-04-30 15:30:00,59.4,55.4,30.26,ENE,67,0.0,3.4,88,0.00,,,0.00,WX3IN1Plus v1.30,2013-04-30 19:30:00,
2013-04-30 15:35:00,59.5,55.4,30.26,ENE,70,0.7,4.3,88,0.00,,,0.00,WX3IN1Plus v1.30,2013-04-30 19:35:00,
2013-04-30 15:40:00,59.6,55.4,30.26,SSE,168,0.0,3.4,87,0.00,,,0.00,WX3IN1Plus v1.30,2013-04-30 19:40:00,
2013-04-30 15:45:00,59.9,55.4,30.27,NNE,21,0.0,4.7,86,0.00,,,0.00,WX3IN1Plus v1.30,2013-04-30 19:45:00,
2013-04-30 15:50:00,60.3,55.9,30.27,ENE,75,0.0,5.9,86,0.00,,,0.00,WX3IN1Plus v1.30,2013-04-30 19:50:00,
2013-04-30 15:55:00,60.4,55.7,30.27,ENE,74,0.6,3.1,85,0.00,,,0.00,WX3IN1Plus v1.30,2013-04-30 19:55:00,
2013-04-30 16:00:00,60.5,55.7,30.27,SSE,168,1.9,5.3,85,0.00,,,0.00,WX3IN1Plus v1.30,2013-04-30 20:00:00,
2013-04-30 16:05:00,61.0,56.3,30.27,ENE,78,0.0,4.9,85,0.00,,,0.00,WX3IN1Plus v1.30,2013-04-30 20:05:00,
2013-04-30 16:10:00,61.1,55.4,30.27,ENE,73,1.6,3.7,83,0.00,,,0.00,WX3IN1Plus v1.30,2013-04-30 20:10:00,
2013-04-30 16:15:00,61.0,54.8,30.28,SE,126,2.1,6.4,81,0.00,,,0.00,WX3IN1Plus v1.30,2013-04-30 20:15:00,
2013-04-30 16:20:00,60.8,54.6,30.28,South,180,3.2,6.8,81,0.00,,,0.00,WX3IN1Plus v1.30,2013-04-30 20:20:00,
2013-04-30 16:25:00,60.6,54.1,30.28,NNE,23,2.0,7.0,80,0.00,,,0.00,WX3IN1Plus v1.30,2013-04-30 20:25:00,
2013-04-30 16:30:00,60.5,54.3,30.28,ESE,115,2.3,4.7,81,0.00,,,0.00,WX3IN1Plus v1.30,2013-04-30 20:30:00,
2013-04-30 16:35:00,60.5,54.3,30.28,South,172,2.0,5.9,81,0.00,,,0.00,WX3IN1Plus v1.30,2013-04-30 20:35:00,
2013-04-30 16:40:00,60.4,54.3,30.28,SSE,150,0.0,3.9,81,0.00,,,0.00,WX3IN1Plus v1.30,2013-04-30 20:40:00,
2013-04-30 16:45:00,60.2,54.1,30.28,NNW,347,0.0,4.5,81,0.00,,,0.00,WX3IN1Plus v1.30,2013-04-30 20:45:00,
2013-04-30 16:50:00,60.2,53.7,30.28,ESE,118,0.0,4.1,80,0.00,,,0.00,WX3IN1Plus v1.30,2013-04-30 20:50:00,
2013-04-30 16:55:00,60.3,54.1,30.28,East,95,1.1,3.2,80,0.00,,,0.00,WX3IN1Plus v1.30,2013-04-30 20:55:00,
2013-04-30 17:00:00,60.3,54.1,30.28,North,4,0.0,7.0,80,0.00,,,0.00,WX3IN1Plus v1.30,2013-04-30 21:00:00,
2013-04-30 17:05:00,60.7,54.3,30.28,East,95,0.0,3.9,80,0.00,,,0.00,WX3IN1Plus v1.30,2013-04-30 21:05:00,
2013-04-30 17:10:00,60.5,53.6,30.28,ESE,123,0.0,4.1,79,0.00,,,0.00,WX3IN1Plus v1.30,2013-04-30 21:10:00,
2013-04-30 17:15:00,60.6,53.6,30.28,NW,324,1.4,3.7,79,0.00,,,0.00,WX3IN1Plus v1.30,2013-04-30 21:15:00,
2013-04-30 17:20:00,60.6,53.2,30.28,ESE,105,0.7,6.0,78,0.00,,,0.00,WX3IN1Plus v1.30,2013-04-30 21:20:00,
2013-04-30 17:25:00,60.7,53.2,30.28,SSW,209,1.4,7.5,77,0.00,,,0.00,WX3IN1Plus v1.30,2013-04-30 21:25:00,
2013-04-30 17:30:00,60.7,53.2,30.28,SSE,158,0.0,4.8,77,0.00,,,0.00,WX3IN1Plus v1.30,2013-04-30 21:30:00,
2013-04-30 17:35:00,60.8,53.2,30.28,ESE,108,0.0,3.3,77,0.00,,,0.00,WX3IN1Plus v1.30,2013-04-30 21:35:00,
2013-04-30 17:40:00,60.5,53.2,30.28,ESE,108,0.0,0.0,78,0.00,,,0.00,WX3IN1Plus v1.30,2013-04-30 21:40:00,
2013-04-30 17:45:00,60.6,52.8,30.28,ESE,123,0.0,2.9,77,0.00,,,0.00,WX3IN1Plus v1.30,2013-04-30 21:45:00,
2013-04-30 17:50:00,60.6,52.8,30.28,SSE,151,0.5,2.4,77,0.00,,,0.00,WX3IN1Plus v1.30,2013-04-30 21:50:00,
2013-04-30 17:55:00,60.5,53.2,30.28,South,177,2.1,3.7,78,0.00,,,0.00,WX3IN1Plus v1.30,2013-04-30 21:55:00,
2013-04-30 18:00:00,60.5,52.8,30.28,SE,129,0.9,3.5,77,0.00,,,0.00,WX3IN1Plus v1.30,2013-04-30 22:00:00,
2013-04-30 18:05:00,60.7,53.2,30.28,ESE,120,0.0,1.1,77,0.00,,,0.00,WX3IN1Plus v1.30,2013-04-30 22:05:00,
2013-04-30 18:10:00,60.7,53.6,30.28,SSE,157,0.0,1.3,78,0.00,,,0.00,WX3IN1Plus v1.30,2013-04-30 22:10:00,
2013-04-30 18:15:00,60.7,53.2,30.28,East,84,1.2,3.5,77,0.00,,,0.00,WX3IN1Plus v1.30,2013-04-30 22:15:00,
2013-04-30 18:20:00,60.5,52.8,30.28,SE,136,0.0,2.7,77,0.00,,,0.00,WX3IN1Plus v1.30,2013-04-30 22:20:00,
2013-04-30 18:25:00,60.3,52.7,30.28,SSW,210,0.0,3.5,76,0.00,,,0.00,WX3IN1Plus v1.30,2013-04-30 22:25:00,
2013-04-30 18:30:00,60.1,52.7,30.28,SE,140,0.8,2.2,77,0.00,,,0.00,WX3IN1Plus v1.30,2013-04-30 22:30:00,
2013-04-30 18:35:00,60.2,52.7,30.28,SE,129,0.0,1.1,77,0.00,,,0.00,WX3IN1Plus v1.30,2013-04-30 22:35:00,
2013-04-30 18:40:00,60.3,52.8,30.28,SSE,163,1.3,5.0,77,0.00,,,0.00,WX3IN1Plus v1.30,2013-04-30 22:40:00,
2013-04-30 18:45:00,60.0,52.3,30.28,SE,139,1.6,3.2,77,0.00,,,0.00,WX3IN1Plus v1.30,2013-04-30 22:45:00,
2013-04-30 18:50:00,59.9,52.3,30.28,SSE,149,1.1,3.8,77,0.00,,,0.00,WX3IN1Plus v1.30,2013-04-30 22:50:00,
2013-04-30 18:55:00,59.7,52.3,30.28,South,175,0.0,1.9,78,0.00,,,0.00,WX3IN1Plus v1.30,2013-04-30 22:55:00,
2013-04-30 19:00:00,59.6,52.1,30.28,SSW,210,1.7,2.7,77,0.00,,,0.00,WX3IN1Plus v1.30,2013-04-30 23:00:00,
2013-04-30 19:05:00,59.4,51.8,30.28,SSW,195,0.0,2.1,77,0.00,,,0.00,WX3IN1Plus v1.30,2013-04-30 23:05:00,
2013-04-30 19:10:00,59.4,51.8,30.28,SSW,195,0.0,0.0,77,0.00,,,0.00,WX3IN1Plus v1.30,2013-04-30 23:10:00,
2013-04-30 19:15:00,59.5,52.1,30.28,SSW,195,0.0,0.0,78,0.00,,,0.00,WX3IN1Plus v1.30,2013-04-30 23:15:00,
2013-04-30 19:20:00,59.5,52.1,30.27,SSW,195,0.0,0.0,78,0.00,,,0.00,WX3IN1Plus v1.30,2013-04-30 23:20:00,
2013-04-30 19:25:00,59.4,52.1,30.28,SSW,195,0.0,0.0,78,0.00,,,0.00,WX3IN1Plus v1.30,2013-04-30 23:25:00,
2013-04-30 19:30:00,59.2,52.1,30.29,SSE,147,0.0,1.1,78,0.00,,,0.00,WX3IN1Plus v1.30,2013-04-30 23:30:00,
2013-04-30 19:35:00,59.3,52.1,30.29,SSE,147,0.0,0.0,78,0.00,,,0.00,WX3IN1Plus v1.30,2013-04-30 23:35:00,
2013-04-30 19:40:00,59.2,52.3,30.29,ESE,123,0.0,1.9,79,0.00,,,0.00,WX3IN1Plus v1.30,2013-04-30 23:40:00,
2013-04-30 19:45:00,59.2,52.3,30.29,ESE,123,0.0,0.0,79,0.00,,,0.00,WX3IN1Plus v1.30,2013-04-30 23:45:00,
2013-04-30 19:50:00,59.1,52.1,30.28,ESE,123,0.0,0.0,79,0.00,,,0.00,WX3IN1Plus v1.30,2013-04-30 23:50:00,
2013-04-30 19:55:00,58.8,51.6,30.28,ESE,123,0.0,0.0,78,0.00,,,0.00,WX3IN1Plus v1.30,2013-04-30 23:55:00,
2013-04-30 20:00:00,58.8,51.6,30.28,SSE,161,0.0,1.8,78,0.00,,,0.00,WX3IN1Plus v1.30,2013-05-01 00:00:00,
2013-04-30 20:05:00,58.7,51.6,30.28,SSW,213,0.9,1.7,78,0.00,,,0.00,WX3IN1Plus v1.30,2013-05-01 00:05:00,
2013-04-30 20:10:00,58.4,51.0,30.29,SSW,192,0.0,1.3,78,0.00,,,0.00,WX3IN1Plus v1.30,2013-05-01 00:10:00,
2013-04-30 20:15:00,58.3,51.2,30.28,SSE,158,0.0,0.8,79,0.00,,,0.00,WX3IN1Plus v1.30,2013-05-01 00:15:00,
2013-04-30 20:20:00,58.2,51.2,30.28,South,175,0.0,1.1,79,0.00,,,0.00,WX3IN1Plus v1.30,2013-05-01 00:20:00,
2013-04-30 20:25:00,58.1,51.2,30.28,South,175,0.0,0.0,79,0.00,,,0.00,WX3IN1Plus v1.30,2013-05-01 00:25:00,
2013-04-30 20:30:00,57.9,51.0,30.28,South,175,0.0,0.0,79,0.00,,,0.00,WX3IN1Plus v1.30,2013-05-01 00:30:00,
2013-04-30 20:35:00,57.7,50.5,30.28,South,175,0.0,0.0,78,0.00,,,0.00,WX3IN1Plus v1.30,2013-05-01 00:35:00,
2013-04-30 20:40:00,57.6,50.5,30.29,South,171,0.0,0.5,78,0.00,,,0.00,WX3IN1Plus v1.30,2013-05-01 00:40:00,
2013-04-30 20:45:00,57.4,50.5,30.29,South,171,0.0,0.0,79,0.00,,,0.00,WX3IN1Plus v1.30,2013-05-01 00:45:00,
2013-04-30 20:50:00,57.4,50.1,30.29,South,171,0.0,0.0,78,0.00,,,0.00,WX3IN1Plus v1.30,2013-05-01 00:50:00,
2013-04-30 20:55:00,57.1,49.6,30.28,South,171,0.0,0.0,77,0.00,,,0.00,WX3IN1Plus v1.30,2013-05-01 00:55:00,
2013-04-30 21:00:00,56.9,49.4,30.30,South,171,0.0,0.0,77,0.00,,,0.00,WX3IN1Plus v1.30,2013-05-01 01:00:00,
2013-04-30 21:05:00,56.6,49.4,30.30,South,171,0.0,0.0,78,0.00,,,0.00,WX3IN1Plus v1.30,2013-05-01 01:05:00,
2013-04-30 21:10:00,56.7,50.5,30.30,South,171,0.0,0.0,80,0.00,,,0.00,WX3IN1Plus v1.30,2013-05-01 01:10:00,
2013-04-30 21:15:00,56.5,50.1,30.30,South,171,0.0,0.0,80,0.00,,,0.00,WX3IN1Plus v1.30,2013-05-01 01:15:00,
2013-04-30 21:20:00,56.3,50.0,30.30,South,171,0.0,0.0,80,0.00,,,0.00,WX3IN1Plus v1.30,2013-05-01 01:20:00,
2013-04-30 21:25:00,55.8,49.4,30.30,South,171,0.0,0.0,80,0.00,,,0.00,WX3IN1Plus v1.30,2013-05-01 01:25:00,
2013-04-30 21:30:00,55.5,49.1,30.31,South,171,0.0,0.0,80,0.00,,,0.00,WX3IN1Plus v1.30,2013-05-01 01:30:00,
2013-04-30 21:35:00,55.3,49.1,30.31,South,171,0.0,0.0,81,0.00,,,0.00,WX3IN1Plus v1.30,2013-05-01 01:35:00,
2013-04-30 21:40:00,55.2,49.1,30.31,South,171,0.0,0.0,81,0.00,,,0.00,WX3IN1Plus v1.30,2013-05-01 01:40:00,
2013-04-30 21:45:00,54.9,49.1,30.31,South,171,0.0,0.0,82,0.00,,,0.00,WX3IN1Plus v1.30,2013-05-01 01:45:00,
2013-04-30 21:50:00,54.5,48.9,30.31,South,171,0.0,0.0,82,0.00,,,0.00,WX3IN1Plus v1.30,2013-05-01 01:50:00,
2013-04-30 21:55:00,54.1,48.3,30.26,South,171,0.0,0.0,82,0.00,,,0.00,WX3IN1Plus v1.30,2013-05-01 01:55:00,
2013-04-30 22:00:00,53.9,48.2,30.31,South,171,0.0,0.0,82,0.00,,,0.00,WX3IN1Plus v1.30,2013-05-01 02:00:00,
2013-04-30 22:05:00,53.7,47.8,30.31,South,171,0.0,0.0,82,0.00,,,0.00,WX3IN1Plus v1.30,2013-05-01 02:05:00,
2013-04-30 22:10:00,53.5,47.6,30.31,South,171,0.0,0.0,81,0.00,,,0.00,WX3IN1Plus v1.30,2013-05-01 02:10:00,
2013-04-30 22:15:00,53.2,47.3,30.30,South,171,0.0,0.0,81,0.00,,,0.00,WX3IN1Plus v1.30,2013-05-01 02:15:00,
2013-04-30 22:20:00,53.0,46.7,30.31,South,171,0.0,0.0,80,0.00,,,0.00,WX3IN1Plus v1.30,2013-05-01 02:20:00,
2013-04-30 22:25:00,53.1,47.1,30.31,South,171,0.0,0.0,80,0.00,,,0.00,WX3IN1Plus v1.30,2013-05-01 02:25:00,
2013-04-30 22:30:00,52.9,46.2,30.31,SE,143,0.0,1.2,79,0.00,,,0.00,WX3IN1Plus v1.30,2013-05-01 02:30:00,
2013-04-30 22:35:00,52.8,45.6,30.31,SE,143,0.0,0.0,78,0.00,,,0.00,WX3IN1Plus v1.30,2013-05-01 02:35:00,
2013-04-30 22:40:00,52.8,45.6,30.31,SE,143,0.0,0.0,78,0.00,,,0.00,WX3IN1Plus v1.30,2013-05-01 02:40:00,
2013-04-30 22:45:00,52.7,46.0,30.31,SE,143,0.0,0.0,79,0.00,,,0.00,WX3IN1Plus v1.30,2013-05-01 02:45:00,
2013-04-30 22:50:00,52.6,46.0,30.32,SE,143,0.0,0.0,79,0.00,,,0.00,WX3IN1Plus v1.30,2013-05-01 02:50:00,
2013-04-30 22:55:00,52.5,46.2,30.32,SE,143,0.0,0.0,80,0.00,,,0.00,WX3IN1Plus v1.30,2013-05-01 02:55:00,
2013-04-30 23:00:00,52.5,46.2,30.32,SE,143,0.0,0.0,80,0.00,,,0.00,WX3IN1Plus v1.30,2013-05-01 03:00:00,
2013-04-30 23:05:00,52.3,46.2,30.32,SE,143,0.0,0.0,81,0.00,,,0.00,WX3IN1Plus v1.30,2013-05-01 03:05:00,
2013-04-30 23:10:00,51.9,46.0,30.32,SE,143,0.0,0.0,81,0.00,,,0.00,WX3IN1Plus v1.30,2013-05-01 03:10:00,
2013-04-30 23:15:00,51.9,46.5,30.32,SE,143,0.0,0.0,83,0.00,,,0.00,WX3IN1Plus v1.30,2013-05-01 03:15:00,
2013-04-30 23:20:00,51.6,46.2,30.32,SE,143,0.0,0.0,83,0.00,,,0.00,WX3IN1Plus v1.30,2013-05-01 03:20:00,
2013-04-30 23:25:00,51.5,46.2,30.32,SE,143,0.0,0.0,83,0.00,,,0.00,WX3IN1Plus v1.30,2013-05-01 03:25:00,
2013-04-30 23:30:00,51.1,45.6,30.33,SE,143,0.0,0.0,83,0.00,,,0.00,WX3IN1Plus v1.30,2013-05-01 03:30:00,
2013-04-30 23:35:00,50.8,46.0,30.33,SE,143,0.0,0.0,84,0.00,,,0.00,WX3IN1Plus v1.30,2013-05-01 03:35:00,
2013-04-30 23:40:00,50.7,45.6,30.33,SE,143,0.0,0.0,84,0.00,,,0.00,WX3IN1Plus v1.30,2013-05-01 03:40:00,
2013-04-30 23:45:00,50.6,45.6,30.33,SE,143,0.0,0.0,84,0.00,,,0.00,WX3IN1Plus v1.30,2013-05-01 03:45:00,
2013-04-30 23:50:00,50.5,46.0,30.33,SE,143,0.0,0.0,85,0.00,,,0.00,WX3IN1Plus v1.30,2013-05-01 03:50:00,
2013-04-30 23:55:00,50.1,45.5,30.33,SE,143,0.0,0.0,85,0.00,,,0.00,WX3IN1Plus v1.30,2013-05-01 03:55:00,